sensor_id;sensor_type;location;lat;lon;timestamp;pressure;altitude;pressure_sealevel;temperature;humidity
37648;BME280;23490;53.656;10.076;2023-10-19T00:01:09;99298.22;;;-145.95;82.08
37648;BME280;23490;53.656;10.076;2023-10-19T00:03:35;99294.09;;;-145.95;82.90
37648;BME280;23490;53.656;10.076;2023-10-19T00:06:01;99316.81;;;-145.95;82.32
37648;BME280;23490;53.656;10.076;2023-10-19T00:08:26;99277.56;;;-145.95;82.85
37648;BME280;23490;53.656;10.076;2023-10-19T00:11:01;99312.69;;;-145.95;82.82
37648;BME280;23490;53.656;10.076;2023-10-19T00:13:34;99294.09;;;-145.95;82.76
37648;BME280;23490;53.656;10.076;2023-10-19T00:16:09;99273.44;;;-145.95;83.34
37648;BME280;23490;53.656;10.076;2023-10-19T00:18:48;99283.78;;;-145.95;83.71
37648;BME280;23490;53.656;10.076;2023-10-19T00:21:14;99279.63;;;-145.95;83.11
37648;BME280;23490;53.656;10.076;2023-10-19T00:23:51;99263.13;;;-145.95;83.59
37648;BME280;23490;53.656;10.076;2023-10-19T00:26:17;99292.03;;;-145.95;83.18
37648;BME280;23490;53.656;10.076;2023-10-19T00:28:46;99314.75;;;-145.95;82.61
37648;BME280;23490;53.656;10.076;2023-10-19T00:31:13;99318.88;;;-145.95;83.01
37648;BME280;23490;53.656;10.076;2023-10-19T00:33:39;99298.22;;;-145.95;83.14
37648;BME280;23490;53.656;10.076;2023-10-19T00:36:05;99306.50;;;-145.95;83.44
37648;BME280;23490;53.656;10.076;2023-10-19T00:38:35;99314.75;;;-145.95;82.79
37648;BME280;23490;53.656;10.076;2023-10-19T00:41:01;99285.84;;;-145.95;82.68
37648;BME280;23490;53.656;10.076;2023-10-19T00:43:47;99331.28;;;-145.95;82.44
37648;BME280;23490;53.656;10.076;2023-10-19T00:46:18;99294.09;;;-145.95;82.28
37648;BME280;23490;53.656;10.076;2023-10-19T00:48:49;99269.31;;;-145.95;82.40
37648;BME280;23490;53.656;10.076;2023-10-19T00:51:17;99318.88;;;-145.95;82.33
37648;BME280;23490;53.656;10.076;2023-10-19T00:54:01;99298.22;;;-145.95;82.71
37648;BME280;23490;53.656;10.076;2023-10-19T00:56:30;99281.72;;;-145.95;82.31
37648;BME280;23490;53.656;10.076;2023-10-19T00:58:59;99345.72;;;-145.95;82.99
37648;BME280;23490;53.656;10.076;2023-10-19T01:01:29;99318.88;;;-145.95;82.79
37648;BME280;23490;53.656;10.076;2023-10-19T01:03:56;99304.41;;;-145.95;82.96
37648;BME280;23490;53.656;10.076;2023-10-19T01:06:23;99296.16;;;-145.95;82.73
37648;BME280;23490;53.656;10.076;2023-10-19T01:08:48;99294.09;;;-145.95;83.88
37648;BME280;23490;53.656;10.076;2023-10-19T01:11:16;99292.03;;;-145.95;82.70
37648;BME280;23490;53.656;10.076;2023-10-19T01:13:45;99281.72;;;-145.95;82.32
37648;BME280;23490;53.656;10.076;2023-10-19T01:16:13;99308.56;;;-145.95;82.16
37648;BME280;23490;53.656;10.076;2023-10-19T01:18:51;99289.97;;;-145.95;82.46
37648;BME280;23490;53.656;10.076;2023-10-19T01:21:23;99308.56;;;-145.95;82.20
37648;BME280;23490;53.656;10.076;2023-10-19T01:24:09;99327.13;;;-145.95;81.81
37648;BME280;23490;53.656;10.076;2023-10-19T01:26:37;99285.84;;;-145.95;82.12
37648;BME280;23490;53.656;10.076;2023-10-19T01:29:03;99296.16;;;-145.95;82.33
37648;BME280;23490;53.656;10.076;2023-10-19T01:31:39;99248.66;;;-145.95;82.09
37648;BME280;23490;53.656;10.076;2023-10-19T01:34:16;99341.59;;;-145.95;82.53
37648;BME280;23490;53.656;10.076;2023-10-19T01:36:45;99314.75;;;-145.95;82.15
37648;BME280;23490;53.656;10.076;2023-10-19T01:39:10;99314.75;;;-145.95;81.87
37648;BME280;23490;53.656;10.076;2023-10-19T01:41:37;99306.50;;;-145.95;81.36
37648;BME280;23490;53.656;10.076;2023-10-19T01:44:03;99275.50;;;-145.95;81.01
37648;BME280;23490;53.656;10.076;2023-10-19T01:46:32;99318.88;;;-145.95;81.33
37648;BME280;23490;53.656;10.076;2023-10-19T01:48:59;99277.56;;;-145.95;81.13
37648;BME280;23490;53.656;10.076;2023-10-19T01:51:29;99281.72;;;-145.95;81.50
37648;BME280;23490;53.656;10.076;2023-10-19T01:53:57;99310.63;;;-145.95;81.08
37648;BME280;23490;53.656;10.076;2023-10-19T01:56:23;99285.84;;;-145.95;81.08
37648;BME280;23490;53.656;10.076;2023-10-19T01:58:50;99283.78;;;-145.95;81.03
37648;BME280;23490;53.656;10.076;2023-10-19T02:01:20;99256.94;;;-145.95;80.75
37648;BME280;23490;53.656;10.076;2023-10-19T02:03:47;99285.84;;;-145.95;81.07
37648;BME280;23490;53.656;10.076;2023-10-19T02:06:14;99273.44;;;-145.95;80.64
37648;BME280;23490;53.656;10.076;2023-10-19T02:08:51;99302.34;;;-145.95;81.66
37648;BME280;23490;53.656;10.076;2023-10-19T02:11:22;99256.94;;;-145.95;81.04
37648;BME280;23490;53.656;10.076;2023-10-19T02:13:48;99289.97;;;-145.95;80.01
37648;BME280;23490;53.656;10.076;2023-10-19T02:16:18;99269.31;;;-145.95;80.30
37648;BME280;23490;53.656;10.076;2023-10-19T02:18:48;99244.53;;;-145.95;80.36
37648;BME280;23490;53.656;10.076;2023-10-19T02:21:14;99273.44;;;-145.95;80.22
37648;BME280;23490;53.656;10.076;2023-10-19T02:23:40;99248.66;;;-145.95;80.02
37648;BME280;23490;53.656;10.076;2023-10-19T02:26:08;99302.34;;;-145.95;80.03
37648;BME280;23490;53.656;10.076;2023-10-19T02:28:34;99273.44;;;-145.95;80.05
37648;BME280;23490;53.656;10.076;2023-10-19T02:31:03;99269.31;;;-145.95;79.42
37648;BME280;23490;53.656;10.076;2023-10-19T02:33:42;99302.34;;;-145.95;79.18
37648;BME280;23490;53.656;10.076;2023-10-19T02:36:14;99285.84;;;-145.95;78.90
37648;BME280;23490;53.656;10.076;2023-10-19T02:38:41;99269.31;;;-145.95;78.98
37648;BME280;23490;53.656;10.076;2023-10-19T02:41:09;99261.06;;;-145.95;79.68
37648;BME280;23490;53.656;10.076;2023-10-19T02:43:36;99256.94;;;-145.95;79.22
37648;BME280;23490;53.656;10.076;2023-10-19T02:46:02;99271.38;;;-145.95;79.19
37648;BME280;23490;53.656;10.076;2023-10-19T02:48:28;99261.06;;;-145.95;78.90
37648;BME280;23490;53.656;10.076;2023-10-19T02:50:54;99256.94;;;-145.95;78.70
37648;BME280;23490;53.656;10.076;2023-10-19T02:53:19;99285.84;;;-145.95;79.10
37648;BME280;23490;53.656;10.076;2023-10-19T02:55:44;99256.94;;;-145.95;78.50
37648;BME280;23490;53.656;10.076;2023-10-19T02:58:10;99269.31;;;-145.95;78.61
37648;BME280;23490;53.656;10.076;2023-10-19T03:00:39;99248.66;;;-145.95;78.54
37648;BME280;23490;53.656;10.076;2023-10-19T03:03:05;99265.19;;;-145.95;78.97
37648;BME280;23490;53.656;10.076;2023-10-19T03:05:31;99263.13;;;-145.95;78.25
37648;BME280;23490;53.656;10.076;2023-10-19T03:07:57;99232.16;;;-145.95;78.20
37648;BME280;23490;53.656;10.076;2023-10-19T03:10:23;99252.78;;;-145.95;78.00
37648;BME280;23490;53.656;10.076;2023-10-19T03:13:08;99289.97;;;-145.95;77.87
37648;BME280;23490;53.656;10.076;2023-10-19T03:15:33;99263.13;;;-145.95;78.38
37648;BME280;23490;53.656;10.076;2023-10-19T03:17:59;99236.28;;;-145.95;78.09
37648;BME280;23490;53.656;10.076;2023-10-19T03:20:27;99238.34;;;-145.95;77.76
37648;BME280;23490;53.656;10.076;2023-10-19T03:22:53;99275.50;;;-145.95;76.93
37648;BME280;23490;53.656;10.076;2023-10-19T03:25:23;99256.94;;;-145.95;76.81
37648;BME280;23490;53.656;10.076;2023-10-19T03:28:07;99254.84;;;-145.95;77.21
37648;BME280;23490;53.656;10.076;2023-10-19T03:30:37;99269.31;;;-145.95;76.59
37648;BME280;23490;53.656;10.076;2023-10-19T03:33:06;99238.34;;;-145.95;76.56
37648;BME280;23490;53.656;10.076;2023-10-19T03:35:35;99256.94;;;-145.95;76.11
37648;BME280;23490;53.656;10.076;2023-10-19T03:38:01;99271.38;;;-145.95;76.54
37648;BME280;23490;53.656;10.076;2023-10-19T03:40:40;99228.00;;;-145.95;76.38
37648;BME280;23490;53.656;10.076;2023-10-19T03:43:06;99244.53;;;-145.95;75.91
37648;BME280;23490;53.656;10.076;2023-10-19T03:45:42;99211.50;;;-145.95;76.61
37648;BME280;23490;53.656;10.076;2023-10-19T03:48:13;99248.66;;;-145.95;76.47
37648;BME280;23490;53.656;10.076;2023-10-19T03:50:41;99269.31;;;-145.95;76.60
37648;BME280;23490;53.656;10.076;2023-10-19T03:53:07;99273.44;;;-145.95;76.54
37648;BME280;23490;53.656;10.076;2023-10-19T03:55:37;99259.00;;;-145.95;76.86
37648;BME280;23490;53.656;10.076;2023-10-19T03:58:03;99252.78;;;-145.95;76.58
37648;BME280;23490;53.656;10.076;2023-10-19T04:00:30;99256.94;;;-145.95;76.17
37648;BME280;23490;53.656;10.076;2023-10-19T04:02:58;99252.78;;;-145.95;76.54
37648;BME280;23490;53.656;10.076;2023-10-19T04:05:24;99265.19;;;-145.95;76.93
37648;BME280;23490;53.656;10.076;2023-10-19T04:07:51;99232.16;;;-145.95;77.73
37648;BME280;23490;53.656;10.076;2023-10-19T04:10:21;99261.06;;;-145.95;78.51
37648;BME280;23490;53.656;10.076;2023-10-19T04:13:15;99252.78;;;-145.95;81.63
37648;BME280;23490;53.656;10.076;2023-10-19T04:15:41;99283.78;;;-145.95;83.25
37648;BME280;23490;53.656;10.076;2023-10-19T04:18:07;99277.56;;;-145.95;85.32
37648;BME280;23490;53.656;10.076;2023-10-19T04:20:35;99292.03;;;-145.95;88.41
37648;BME280;23490;53.656;10.076;2023-10-19T04:23:15;99318.88;;;-145.95;87.49
37648;BME280;23490;53.656;10.076;2023-10-19T04:25:41;99269.31;;;-145.95;90.67
37648;BME280;23490;53.656;10.076;2023-10-19T04:28:06;99316.81;;;-145.95;92.87
37648;BME280;23490;53.656;10.076;2023-10-19T04:30:32;99351.91;;;-145.95;92.25
37648;BME280;23490;53.656;10.076;2023-10-19T04:32:58;99294.09;;;-145.95;93.73
37648;BME280;23490;53.656;10.076;2023-10-19T04:35:26;99327.13;;;-145.95;94.91
37648;BME280;23490;53.656;10.076;2023-10-19T04:37:55;99339.53;;;-145.95;94.90
37648;BME280;23490;53.656;10.076;2023-10-19T04:40:23;99335.41;;;-145.95;96.13
37648;BME280;23490;53.656;10.076;2023-10-19T04:42:51;99298.22;;;-145.95;95.88
37648;BME280;23490;53.656;10.076;2023-10-19T04:45:17;99318.88;;;-145.95;95.58
37648;BME280;23490;53.656;10.076;2023-10-19T04:47:42;99368.44;;;-145.95;98.11
37648;BME280;23490;53.656;10.076;2023-10-19T04:50:08;99327.13;;;-145.95;95.87
37648;BME280;23490;53.656;10.076;2023-10-19T04:52:37;99368.44;;;-145.95;98.67
37648;BME280;23490;53.656;10.076;2023-10-19T04:55:02;99345.72;;;-145.95;97.98
37648;BME280;23490;53.656;10.076;2023-10-19T04:57:28;99376.69;;;-145.95;99.78
37648;BME280;23490;53.656;10.076;2023-10-19T04:59:56;99384.97;;;-145.95;100.00
37648;BME280;23490;53.656;10.076;2023-10-19T05:02:21;99378.78;;;-145.95;100.00
37648;BME280;23490;53.656;10.076;2023-10-19T05:04:47;99393.22;;;-145.95;100.00
37648;BME280;23490;53.656;10.076;2023-10-19T05:07:13;99376.69;;;-145.95;100.00
37648;BME280;23490;53.656;10.076;2023-10-19T05:09:42;99393.22;;;-145.95;100.00
37648;BME280;23490;53.656;10.076;2023-10-19T05:12:07;99384.97;;;-145.95;100.00
37648;BME280;23490;53.656;10.076;2023-10-19T05:14:35;99389.09;;;-145.95;100.00
37648;BME280;23490;53.656;10.076;2023-10-19T05:17:03;99401.50;;;-145.95;100.00
37648;BME280;23490;53.656;10.076;2023-10-19T05:19:31;99380.84;;;-145.95;100.00
37648;BME280;23490;53.656;10.076;2023-10-19T05:21:57;99304.41;;;-145.95;100.00
37648;BME280;23490;53.656;10.076;2023-10-19T05:24:22;99356.06;;;-145.95;100.00
37648;BME280;23490;53.656;10.076;2023-10-19T05:26:48;99411.81;;;-145.95;100.00
37648;BME280;23490;53.656;10.076;2023-10-19T05:29:14;99374.63;;;-145.95;100.00
37648;BME280;23490;53.656;10.076;2023-10-19T05:31:40;99364.31;;;-145.95;100.00
37648;BME280;23490;53.656;10.076;2023-10-19T05:34:05;99415.94;;;-145.95;100.00
37648;BME280;23490;53.656;10.076;2023-10-19T05:36:30;99372.56;;;-145.95;100.00
37648;BME280;23490;53.656;10.076;2023-10-19T05:38:57;99405.63;;;-145.95;100.00
37648;BME280;23490;53.656;10.076;2023-10-19T05:41:23;99397.34;;;-145.95;100.00
37648;BME280;23490;53.656;10.076;2023-10-19T05:43:48;99434.53;;;-145.95;100.00
37648;BME280;23490;53.656;10.076;2023-10-19T05:46:14;99393.22;;;-145.95;100.00
37648;BME280;23490;53.656;10.076;2023-10-19T05:48:44;99327.13;;;-145.95;100.00
37648;BME280;23490;53.656;10.076;2023-10-19T05:51:10;99389.09;;;-145.95;100.00
37648;BME280;23490;53.656;10.076;2023-10-19T05:53:36;99393.22;;;-145.95;100.00
37648;BME280;23490;53.656;10.076;2023-10-19T05:56:02;99409.75;;;-145.95;100.00
37648;BME280;23490;53.656;10.076;2023-10-19T05:58:28;99391.16;;;-145.95;100.00
37648;BME280;23490;53.656;10.076;2023-10-19T06:00:53;99413.88;;;-145.95;100.00
37648;BME280;23490;53.656;10.076;2023-10-19T06:03:18;99372.56;;;-145.95;100.00
37648;BME280;23490;53.656;10.076;2023-10-19T06:05:44;99399.41;;;-145.95;100.00
37648;BME280;23490;53.656;10.076;2023-10-19T06:08:09;99418.00;;;-145.95;100.00
37648;BME280;23490;53.656;10.076;2023-10-19T06:10:35;99413.88;;;-145.95;100.00
37648;BME280;23490;53.656;10.076;2023-10-19T06:13:00;99389.09;;;-145.95;100.00
37648;BME280;23490;53.656;10.076;2023-10-19T06:15:25;99401.50;;;-145.95;100.00
37648;BME280;23490;53.656;10.076;2023-10-19T06:17:51;99389.09;;;-145.95;100.00
37648;BME280;23490;53.656;10.076;2023-10-19T06:20:17;99372.56;;;-145.95;100.00
37648;BME280;23490;53.656;10.076;2023-10-19T06:22:53;99413.88;;;-145.95;100.00
37648;BME280;23490;53.656;10.076;2023-10-19T06:25:20;99384.97;;;-145.95;100.00
37648;BME280;23490;53.656;10.076;2023-10-19T06:27:47;99401.50;;;-145.95;100.00
37648;BME280;23490;53.656;10.076;2023-10-19T06:30:14;99376.69;;;-145.95;100.00
37648;BME280;23490;53.656;10.076;2023-10-19T06:32:47;99422.13;;;-145.95;100.00
37648;BME280;23490;53.656;10.076;2023-10-19T06:35:12;99415.94;;;-145.95;100.00
37648;BME280;23490;53.656;10.076;2023-10-19T06:37:38;99384.97;;;-145.95;100.00
37648;BME280;23490;53.656;10.076;2023-10-19T06:40:04;99378.78;;;-145.95;100.00
37648;BME280;23490;53.656;10.076;2023-10-19T06:42:31;99405.63;;;-145.95;100.00
37648;BME280;23490;53.656;10.076;2023-10-19T06:44:57;99426.28;;;-145.95;100.00
37648;BME280;23490;53.656;10.076;2023-10-19T06:47:22;99393.22;;;-145.95;100.00
37648;BME280;23490;53.656;10.076;2023-10-19T06:49:48;99384.97;;;-145.95;100.00
37648;BME280;23490;53.656;10.076;2023-10-19T06:52:14;99399.41;;;-145.95;100.00
37648;BME280;23490;53.656;10.076;2023-10-19T06:54:41;99430.41;;;-145.95;100.00
37648;BME280;23490;53.656;10.076;2023-10-19T06:57:07;99420.06;;;-145.95;100.00
37648;BME280;23490;53.656;10.076;2023-10-19T06:59:35;99446.91;;;-145.95;100.00
37648;BME280;23490;53.656;10.076;2023-10-19T07:02:01;99422.13;;;-145.95;100.00
37648;BME280;23490;53.656;10.076;2023-10-19T07:04:28;99401.50;;;-145.95;100.00
37648;BME280;23490;53.656;10.076;2023-10-19T07:06:54;99380.84;;;-145.95;100.00
37648;BME280;23490;53.656;10.076;2023-10-19T07:09:19;99422.13;;;-145.95;100.00
37648;BME280;23490;53.656;10.076;2023-10-19T07:11:46;99422.13;;;-145.95;100.00
37648;BME280;23490;53.656;10.076;2023-10-19T07:14:12;99391.16;;;-145.95;100.00
37648;BME280;23490;53.656;10.076;2023-10-19T07:16:39;99422.13;;;-145.95;100.00
37648;BME280;23490;53.656;10.076;2023-10-19T07:19:06;99389.09;;;-145.95;100.00
37648;BME280;23490;53.656;10.076;2023-10-19T07:21:31;99397.34;;;-145.95;100.00
37648;BME280;23490;53.656;10.076;2023-10-19T07:24:01;99403.56;;;-145.95;100.00
37648;BME280;23490;53.656;10.076;2023-10-19T07:26:30;99418.00;;;-145.95;100.00
37648;BME280;23490;53.656;10.076;2023-10-19T07:28:58;99422.13;;;-145.95;100.00
37648;BME280;23490;53.656;10.076;2023-10-19T07:31:25;99434.53;;;-145.95;100.00
37648;BME280;23490;53.656;10.076;2023-10-19T07:33:53;99397.34;;;-145.95;100.00
37648;BME280;23490;53.656;10.076;2023-10-19T07:36:20;99403.56;;;-145.95;100.00
37648;BME280;23490;53.656;10.076;2023-10-19T07:38:46;99384.97;;;-145.95;100.00
37648;BME280;23490;53.656;10.076;2023-10-19T07:41:12;99409.75;;;-145.95;100.00
37648;BME280;23490;53.656;10.076;2023-10-19T07:43:38;99372.56;;;-145.95;100.00
37648;BME280;23490;53.656;10.076;2023-10-19T07:46:04;99418.00;;;-145.95;100.00
37648;BME280;23490;53.656;10.076;2023-10-19T07:48:29;99405.63;;;-145.95;100.00
37648;BME280;23490;53.656;10.076;2023-10-19T07:50:54;99409.75;;;-145.95;100.00
37648;BME280;23490;53.656;10.076;2023-10-19T07:53:21;99413.88;;;-145.95;100.00
37648;BME280;23490;53.656;10.076;2023-10-19T07:55:47;99409.75;;;-145.95;100.00
37648;BME280;23490;53.656;10.076;2023-10-19T07:58:12;99405.63;;;-145.95;100.00
37648;BME280;23490;53.656;10.076;2023-10-19T08:00:38;99389.09;;;-145.95;100.00
37648;BME280;23490;53.656;10.076;2023-10-19T08:03:04;99438.66;;;-145.95;100.00
37648;BME280;23490;53.656;10.076;2023-10-19T08:05:31;99393.22;;;-145.95;100.00
37648;BME280;23490;53.656;10.076;2023-10-19T08:07:57;99405.63;;;-145.95;100.00
37648;BME280;23490;53.656;10.076;2023-10-19T08:10:23;99415.94;;;-145.95;100.00
37648;BME280;23490;53.656;10.076;2023-10-19T08:12:50;99418.00;;;-145.95;100.00
37648;BME280;23490;53.656;10.076;2023-10-19T08:15:17;99438.66;;;-145.95;100.00
37648;BME280;23490;53.656;10.076;2023-10-19T08:17:44;99422.13;;;-145.95;100.00
37648;BME280;23490;53.656;10.076;2023-10-19T08:20:11;99413.88;;;-145.95;100.00
37648;BME280;23490;53.656;10.076;2023-10-19T08:22:54;99376.69;;;-145.95;100.00
37648;BME280;23490;53.656;10.076;2023-10-19T08:25:22;99391.16;;;-145.95;100.00
37648;BME280;23490;53.656;10.076;2023-10-19T08:27:48;99418.00;;;-145.95;100.00
37648;BME280;23490;53.656;10.076;2023-10-19T08:30:20;99422.13;;;-145.95;100.00
37648;BME280;23490;53.656;10.076;2023-10-19T08:32:49;99413.88;;;-145.95;100.00
37648;BME280;23490;53.656;10.076;2023-10-19T08:35:17;99384.97;;;-145.95;100.00
37648;BME280;23490;53.656;10.076;2023-10-19T08:37:49;99430.41;;;-145.95;100.00
37648;BME280;23490;53.656;10.076;2023-10-19T08:40:15;99411.81;;;-145.95;100.00
37648;BME280;23490;53.656;10.076;2023-10-19T08:42:42;99422.13;;;-145.95;100.00
37648;BME280;23490;53.656;10.076;2023-10-19T08:45:09;99426.28;;;-145.95;100.00
37648;BME280;23490;53.656;10.076;2023-10-19T08:47:42;99384.97;;;-145.95;100.00
37648;BME280;23490;53.656;10.076;2023-10-19T08:50:08;99401.50;;;-145.95;100.00
37648;BME280;23490;53.656;10.076;2023-10-19T08:52:35;99455.19;;;-145.95;100.00
37648;BME280;23490;53.656;10.076;2023-10-19T08:55:01;99426.28;;;-145.95;100.00
37648;BME280;23490;53.656;10.076;2023-10-19T08:57:27;99401.50;;;-145.95;100.00
37648;BME280;23490;53.656;10.076;2023-10-19T08:59:54;99399.41;;;-145.95;100.00
37648;BME280;23490;53.656;10.076;2023-10-19T09:02:22;99413.88;;;-145.95;100.00
37648;BME280;23490;53.656;10.076;2023-10-19T09:04:47;99403.56;;;-145.95;100.00
37648;BME280;23490;53.656;10.076;2023-10-19T09:07:13;99471.69;;;-145.95;100.00
37648;BME280;23490;53.656;10.076;2023-10-19T09:09:39;99418.00;;;-145.95;100.00
37648;BME280;23490;53.656;10.076;2023-10-19T09:12:07;99418.00;;;-145.95;100.00
37648;BME280;23490;53.656;10.076;2023-10-19T09:14:34;99372.56;;;-145.95;100.00
37648;BME280;23490;53.656;10.076;2023-10-19T09:17:01;99430.41;;;-145.95;100.00
37648;BME280;23490;53.656;10.076;2023-10-19T09:19:54;99422.13;;;-145.95;100.00
37648;BME280;23490;53.656;10.076;2023-10-19T09:22:22;99442.78;;;-145.95;100.00
37648;BME280;23490;53.656;10.076;2023-10-19T09:24:50;99418.00;;;-145.95;100.00
37648;BME280;23490;53.656;10.076;2023-10-19T09:27:17;99409.75;;;-145.95;100.00
37648;BME280;23490;53.656;10.076;2023-10-19T09:29:43;99413.88;;;-145.95;100.00
37648;BME280;23490;53.656;10.076;2023-10-19T09:32:08;99415.94;;;-145.95;100.00
37648;BME280;23490;53.656;10.076;2023-10-19T09:34:35;99432.47;;;-145.95;100.00
37648;BME280;23490;53.656;10.076;2023-10-19T09:37:01;99384.97;;;-145.95;100.00
37648;BME280;23490;53.656;10.076;2023-10-19T09:39:28;99459.31;;;-145.95;100.00
37648;BME280;23490;53.656;10.076;2023-10-19T09:42:06;99384.97;;;-145.95;100.00
37648;BME280;23490;53.656;10.076;2023-10-19T09:44:48;99422.13;;;-145.95;100.00
37648;BME280;23490;53.656;10.076;2023-10-19T09:47:26;99380.84;;;-145.95;100.00
37648;BME280;23490;53.656;10.076;2023-10-19T09:49:56;99393.22;;;-145.95;100.00
37648;BME280;23490;53.656;10.076;2023-10-19T09:52:23;99436.59;;;-145.95;100.00
37648;BME280;23490;53.656;10.076;2023-10-19T09:57:50;99411.81;;;-145.95;100.00
37648;BME280;23490;53.656;10.076;2023-10-19T10:00:19;99415.94;;;-145.95;100.00
37648;BME280;23490;53.656;10.076;2023-10-19T10:02:51;99384.97;;;-145.95;100.00
37648;BME280;23490;53.656;10.076;2023-10-19T10:08:29;99418.00;;;-145.95;100.00
37648;BME280;23490;53.656;10.076;2023-10-19T10:10:54;99389.09;;;-145.95;100.00
37648;BME280;23490;53.656;10.076;2023-10-19T10:15:56;99424.19;;;-145.95;100.00
37648;BME280;23490;53.656;10.076;2023-10-19T10:18:26;99434.53;;;-145.95;100.00
37648;BME280;23490;53.656;10.076;2023-10-19T10:21:12;99442.78;;;-145.95;100.00
37648;BME280;23490;53.656;10.076;2023-10-19T10:23:45;99413.88;;;-145.95;100.00
37648;BME280;23490;53.656;10.076;2023-10-19T10:26:13;99401.50;;;-145.95;100.00
37648;BME280;23490;53.656;10.076;2023-10-19T10:28:40;99418.00;;;-145.95;100.00
37648;BME280;23490;53.656;10.076;2023-10-19T10:31:21;99393.22;;;-145.95;100.00
37648;BME280;23490;53.656;10.076;2023-10-19T10:33:52;99364.31;;;-145.95;100.00
37648;BME280;23490;53.656;10.076;2023-10-19T10:36:20;99401.50;;;-145.95;100.00
37648;BME280;23490;53.656;10.076;2023-10-19T10:38:50;99380.84;;;-145.95;100.00
37648;BME280;23490;53.656;10.076;2023-10-19T10:43:55;99372.56;;;-145.95;100.00
37648;BME280;23490;53.656;10.076;2023-10-19T10:46:22;99426.28;;;-145.95;100.00
37648;BME280;23490;53.656;10.076;2023-10-19T10:48:48;99401.50;;;-145.95;100.00
37648;BME280;23490;53.656;10.076;2023-10-19T10:51:32;99403.56;;;-145.95;100.00
37648;BME280;23490;53.656;10.076;2023-10-19T10:53:58;99393.22;;;-145.95;100.00
37648;BME280;23490;53.656;10.076;2023-10-19T10:56:23;99401.50;;;-145.95;100.00
37648;BME280;23490;53.656;10.076;2023-10-19T10:58:49;99409.75;;;-145.95;100.00
37648;BME280;23490;53.656;10.076;2023-10-19T11:01:15;99418.00;;;-145.95;100.00
37648;BME280;23490;53.656;10.076;2023-10-19T11:04:08;99422.13;;;-145.95;100.00
37648;BME280;23490;53.656;10.076;2023-10-19T11:06:49;99426.28;;;-145.95;100.00
37648;BME280;23490;53.656;10.076;2023-10-19T11:09:14;99356.06;;;-145.95;100.00
37648;BME280;23490;53.656;10.076;2023-10-19T11:11:44;99393.22;;;-145.95;100.00
37648;BME280;23490;53.656;10.076;2023-10-19T11:14:10;99376.69;;;-145.95;100.00
37648;BME280;23490;53.656;10.076;2023-10-19T11:16:38;99405.63;;;-145.95;100.00
37648;BME280;23490;53.656;10.076;2023-10-19T11:19:05;99420.06;;;-145.95;100.00
37648;BME280;23490;53.656;10.076;2023-10-19T11:21:30;99376.69;;;-145.95;100.00
37648;BME280;23490;53.656;10.076;2023-10-19T11:23:55;99405.63;;;-145.95;100.00
37648;BME280;23490;53.656;10.076;2023-10-19T11:26:23;99401.50;;;-145.95;100.00
37648;BME280;23490;53.656;10.076;2023-10-19T11:28:59;99434.53;;;-145.95;100.00
37648;BME280;23490;53.656;10.076;2023-10-19T11:31:26;99430.41;;;-145.95;100.00
37648;BME280;23490;53.656;10.076;2023-10-19T11:33:53;99409.75;;;-145.95;100.00
37648;BME280;23490;53.656;10.076;2023-10-19T11:36:21;99372.56;;;-145.95;100.00
37648;BME280;23490;53.656;10.076;2023-10-19T11:38:50;99409.75;;;-145.95;100.00
37648;BME280;23490;53.656;10.076;2023-10-19T11:41:19;99411.81;;;-145.95;100.00
37648;BME280;23490;53.656;10.076;2023-10-19T11:43:46;99413.88;;;-145.95;100.00
37648;BME280;23490;53.656;10.076;2023-10-19T11:46:12;99413.88;;;-145.95;100.00
37648;BME280;23490;53.656;10.076;2023-10-19T11:48:39;99389.09;;;-145.95;100.00
37648;BME280;23490;53.656;10.076;2023-10-19T11:51:05;99418.00;;;-145.95;100.00
37648;BME280;23490;53.656;10.076;2023-10-19T11:53:35;99393.22;;;-145.95;100.00
37648;BME280;23490;53.656;10.076;2023-10-19T11:56:03;99374.63;;;-145.95;100.00
37648;BME280;23490;53.656;10.076;2023-10-19T11:58:38;99409.75;;;-145.95;100.00
37648;BME280;23490;53.656;10.076;2023-10-19T12:01:05;99393.22;;;-145.95;100.00
37648;BME280;23490;53.656;10.076;2023-10-19T12:03:36;99422.13;;;-145.95;100.00
37648;BME280;23490;53.656;10.076;2023-10-19T12:06:08;99409.75;;;-145.95;100.00
37648;BME280;23490;53.656;10.076;2023-10-19T12:08:34;99374.63;;;-145.95;100.00
37648;BME280;23490;53.656;10.076;2023-10-19T12:10:59;99387.03;;;-145.95;100.00
37648;BME280;23490;53.656;10.076;2023-10-19T12:13:27;99384.97;;;-145.95;100.00
37648;BME280;23490;53.656;10.076;2023-10-19T12:15:53;99380.84;;;-145.95;100.00
37648;BME280;23490;53.656;10.076;2023-10-19T12:18:20;99397.34;;;-145.95;100.00
37648;BME280;23490;53.656;10.076;2023-10-19T12:20:46;99339.53;;;-145.95;100.00
37648;BME280;23490;53.656;10.076;2023-10-19T12:23:13;99364.31;;;-145.95;100.00
37648;BME280;23490;53.656;10.076;2023-10-19T12:25:38;99401.50;;;-145.95;100.00
37648;BME280;23490;53.656;10.076;2023-10-19T12:28:04;99393.22;;;-145.95;100.00
37648;BME280;23490;53.656;10.076;2023-10-19T12:30:30;99368.44;;;-145.95;100.00
37648;BME280;23490;53.656;10.076;2023-10-19T12:33:02;99372.56;;;-145.95;100.00
37648;BME280;23490;53.656;10.076;2023-10-19T12:35:33;99368.44;;;-145.95;100.00
37648;BME280;23490;53.656;10.076;2023-10-19T12:38:13;99376.69;;;-145.95;100.00
37648;BME280;23490;53.656;10.076;2023-10-19T12:40:45;99389.09;;;-145.95;100.00